Time;durP1;ratioP1;P1;durP2;ratioP2;P2;SDS_P1;SDS_P2;PMS_P1;PMS_P2;Temp;Humidity;BMP_temperature;BMP_pressure;BME280_temperature;BME280_humidity;BME280_pressure;Samples;Min_cycle;Max_cycle;Signal;HPM_P1;HPM_P2
2023/06/10 00:01:31;;;;;;;21.57;12.53;;;;;;;;;;5093313;28;20498;-75
2023/06/10 00:03:58;;;;;;;17.93;12.43;;;;;;;;;;5093239;28;20821;-75
2023/06/10 00:06:25;;;;;;;14.97;11.57;;;;;;;;;;5093136;28;20443;-75
2023/06/10 00:08:53;;;;;;;16.87;11.00;;;;;;;;;;5092183;28;20454;-75
2023/06/10 00:11:21;;;;;;;12.80;11.23;;;;;;;;;;5093018;28;20454;-75
2023/06/10 00:13:48;;;;;;;14.83;11.43;;;;;;;;;;5093078;28;20588;-75
2023/06/10 00:16:17;;;;;;;11.17;9.97;;;;;;;;;;5093006;28;20457;-75
2023/06/10 00:18:46;;;;;;;13.47;11.30;;;;;;;;;;5092626;28;20454;-75
2023/06/10 00:21:14;;;;;;;13.43;11.30;;;;;;;;;;5092836;28;20451;-75
2023/06/10 00:23:41;;;;;;;13.87;11.77;;;;;;;;;;5093117;28;20805;-75
2023/06/10 00:26:08;;;;;;;18.53;13.43;;;;;;;;;;5092916;28;20462;-75
2023/06/10 00:28:35;;;;;;;14.83;10.90;;;;;;;;;;5092960;28;20835;-75
2023/06/10 00:31:04;;;;;;;14.60;11.97;;;;;;;;;;5092928;28;20479;-75
2023/06/10 00:33:31;;;;;;;17.20;10.80;;;;;;;;;;5092960;28;20934;-75
2023/06/10 00:35:59;;;;;;;16.97;11.43;;;;;;;;;;5092829;28;20451;-75
2023/06/10 00:38:26;;;;;;;12.50;11.20;;;;;;;;;;5092750;28;20932;-75
2023/06/10 00:40:53;;;;;;;17.70;12.47;;;;;;;;;;5092873;28;20475;-75
2023/06/10 00:43:21;;;;;;;16.03;12.70;;;;;;;;;;5092726;28;20485;-75
2023/06/10 00:45:48;;;;;;;15.00;13.40;;;;;;;;;;5092424;28;20447;-75
2023/06/10 00:48:15;;;;;;;16.70;13.63;;;;;;;;;;5091968;28;20453;-75
2023/06/10 00:50:42;;;;;;;18.30;13.30;;;;;;;;;;5092848;28;20824;-75
2023/06/10 00:53:11;;;;;;;18.50;13.47;;;;;;;;;;5092599;28;20455;-75
2023/06/10 00:55:38;;;;;;;16.43;12.23;;;;;;;;;;5092805;28;20455;-75
2023/06/10 00:58:05;;;;;;;15.60;11.93;;;;;;;;;;5092616;28;20846;-75
2023/06/10 01:00:33;;;;;;;14.47;11.83;;;;;;;;;;5092698;28;20482;-75
2023/06/10 01:03:00;;;;;;;15.90;12.13;;;;;;;;;;5092683;28;20482;-75
2023/06/10 01:05:27;;;;;;;15.93;12.63;;;;;;;;;;5092502;28;20439;-75
2023/06/10 01:08:04;;;;;;;16.87;13.13;;;;;;;;;;5092574;28;20458;-75
2023/06/10 01:10:35;;;;;;;21.13;12.30;;;;;;;;;;5092571;28;20482;-75
2023/06/10 01:13:04;;;;;;;15.13;13.10;;;;;;;;;;5092615;28;20812;-75
2023/06/10 01:15:31;;;;;;;16.97;13.50;;;;;;;;;;5092163;28;20467;-75
2023/06/10 01:17:59;;;;;;;15.13;12.40;;;;;;;;;;5092678;28;20469;-75
2023/06/10 01:20:27;;;;;;;21.43;12.40;;;;;;;;;;5093653;28;20466;-75
2023/06/10 01:22:57;;;;;;;14.50;12.80;;;;;;;;;;5096211;28;20490;-75
2023/06/10 01:25:27;;;;;;;14.37;11.57;;;;;;;;;;5096349;28;20504;-75
2023/06/10 01:27:55;;;;;;;16.30;12.43;;;;;;;;;;5096302;28;20461;-75
2023/06/10 01:30:25;;;;;;;12.97;11.63;;;;;;;;;;5095759;28;20466;-75
2023/06/10 01:32:53;;;;;;;18.03;12.50;;;;;;;;;;5096225;28;20461;-75
2023/06/10 01:35:23;;;;;;;13.67;12.20;;;;;;;;;;5096134;28;20457;-75
2023/06/10 01:37:50;;;;;;;18.13;12.13;;;;;;;;;;5096069;28;20864;-75
2023/06/10 01:40:19;;;;;;;19.40;13.60;;;;;;;;;;5095579;28;20474;-75
2023/06/10 01:42:46;;;;;;;14.50;12.80;;;;;;;;;;5095922;28;20486;-75
2023/06/10 01:45:13;;;;;;;16.33;13.73;;;;;;;;;;5095755;28;20504;-75
2023/06/10 01:47:40;;;;;;;14.30;12.80;;;;;;;;;;5095333;28;20443;-75
2023/06/10 01:50:08;;;;;;;14.30;12.70;;;;;;;;;;5095552;28;20486;-75
2023/06/10 01:52:35;;;;;;;13.90;12.30;;;;;;;;;;5095843;28;20458;-75
2023/06/10 01:55:02;;;;;;;26.43;13.43;;;;;;;;;;5095799;28;20950;-75
2023/06/10 01:57:31;;;;;;;17.87;14.17;;;;;;;;;;5095536;28;20455;-75
2023/06/10 01:59:58;;;;;;;17.50;13.67;;;;;;;;;;5095261;28;20478;-75
2023/06/10 02:02:25;;;;;;;15.43;13.73;;;;;;;;;;5095544;28;20488;-75
2023/06/10 02:04:52;;;;;;;15.77;13.00;;;;;;;;;;5095503;28;20947;-75
2023/06/10 02:07:19;;;;;;;16.00;12.77;;;;;;;;;;5095378;28;20454;-75
2023/06/10 02:09:46;;;;;;;15.87;12.90;;;;;;;;;;5095262;28;20474;-75
2023/06/10 02:12:13;;;;;;;15.77;12.80;;;;;;;;;;5095492;28;20446;-75
2023/06/10 02:14:42;;;;;;;15.50;12.70;;;;;;;;;;5095358;28;20461;-75
2023/06/10 02:17:12;;;;;;;18.90;13.50;;;;;;;;;;5095315;28;20797;-75
2023/06/10 02:19:42;;;;;;;16.60;13.77;;;;;;;;;;5094869;28;20474;-75
2023/06/10 02:22:09;;;;;;;16.80;14.20;;;;;;;;;;5095020;28;20482;-75
2023/06/10 02:24:37;;;;;;;17.70;14.40;;;;;;;;;;5095407;28;20450;-75
2023/06/10 02:27:06;;;;;;;15.17;13.13;;;;;;;;;;5095050;28;20490;-75
2023/06/10 02:29:33;;;;;;;21.87;15.77;;;;;;;;;;5094839;28;20565;-75
2023/06/10 02:32:02;;;;;;;18.10;15.40;;;;;;;;;;5094315;28;20466;-75
2023/06/10 02:34:29;;;;;;;18.53;14.50;;;;;;;;;;5094808;28;20544;-75
2023/06/10 02:36:56;;;;;;;16.07;12.67;;;;;;;;;;5095343;28;20454;-75
2023/06/10 02:39:23;;;;;;;17.23;14.17;;;;;;;;;;5094470;28;20478;-75
2023/06/10 02:41:51;;;;;;;23.67;14.90;;;;;;;;;;5094744;28;20450;-75
2023/06/10 02:44:20;;;;;;;18.53;14.97;;;;;;;;;;5094606;28;20507;-75
2023/06/10 02:46:47;;;;;;;18.87;15.60;;;;;;;;;;5094781;28;20454;-75
2023/06/10 02:49:15;;;;;;;21.77;15.90;;;;;;;;;;5093733;28;21100;-75
2023/06/10 02:51:42;;;;;;;18.30;15.13;;;;;;;;;;5094615;28;20465;-75
2023/06/10 02:54:10;;;;;;;22.80;16.50;;;;;;;;;;5094437;28;20447;-75
2023/06/10 02:56:37;;;;;;;23.83;17.40;;;;;;;;;;5094485;28;20973;-75
2023/06/10 02:59:07;;;;;;;22.77;18.43;;;;;;;;;;5094270;28;20887;-75
2023/06/10 03:01:36;;;;;;;22.83;16.60;;;;;;;;;;5094408;28;20497;-75
2023/06/10 03:04:03;;;;;;;22.93;18.10;;;;;;;;;;5094159;28;20486;-75
2023/06/10 03:06:33;;;;;;;23.93;17.33;;;;;;;;;;5094344;28;20476;-75
2023/06/10 03:09:01;;;;;;;24.87;17.87;;;;;;;;;;5093744;28;20466;-75
2023/06/10 03:11:28;;;;;;;28.30;18.50;;;;;;;;;;5094103;28;20462;-75
2023/06/10 03:13:55;;;;;;;26.23;19.43;;;;;;;;;;5093895;28;20940;-75
2023/06/10 03:16:22;;;;;;;22.97;17.13;;;;;;;;;;5093264;28;20947;-75
2023/06/10 03:18:50;;;;;;;31.07;17.70;;;;;;;;;;5093210;28;20454;-75
2023/06/10 03:21:17;;;;;;;23.07;17.90;;;;;;;;;;5093274;28;20459;-75
2023/06/10 03:23:46;;;;;;;24.77;18.47;;;;;;;;;;5093712;28;20498;-75
2023/06/10 03:26:14;;;;;;;18.37;16.30;;;;;;;;;;5093063;28;20455;-75
2023/06/10 03:28:41;;;;;;;24.27;18.40;;;;;;;;;;5093050;28;20461;-75
2023/06/10 03:31:08;;;;;;;25.00;16.57;;;;;;;;;;5093085;28;20453;-74
2023/06/10 03:33:35;;;;;;;23.90;16.50;;;;;;;;;;5093156;28;20458;-75
2023/06/10 03:36:03;;;;;;;28.70;17.43;;;;;;;;;;5092902;28;20458;-74
2023/06/10 03:38:30;;;;;;;36.40;18.57;;;;;;;;;;5092908;28;20447;-75
2023/06/10 03:40:58;;;;;;;24.50;18.00;;;;;;;;;;5092918;28;20478;-74
2023/06/10 03:43:25;;;;;;;21.50;15.17;;;;;;;;;;5092897;28;20494;-74
2023/06/10 03:45:52;;;;;;;23.37;18.13;;;;;;;;;;5091843;28;20450;-74
2023/06/10 03:48:20;;;;;;;24.07;16.10;;;;;;;;;;5091908;28;20458;-74
2023/06/10 03:50:50;;;;;;;23.13;16.73;;;;;;;;;;5093080;28;20474;-74
2023/06/10 03:53:17;;;;;;;19.00;14.60;;;;;;;;;;5092373;28;20504;-74
2023/06/10 03:55:44;;;;;;;22.20;14.83;;;;;;;;;;5092868;28;20459;-74
2023/06/10 03:58:14;;;;;;;20.83;15.87;;;;;;;;;;5092490;28;20458;-74
2023/06/10 04:00:42;;;;;;;20.40;15.50;;;;;;;;;;5092650;28;20486;-74
2023/06/10 04:03:14;;;;;;;24.70;15.30;;;;;;;;;;5092175;28;20479;-74
2023/06/10 04:05:42;;;;;;;25.40;15.00;;;;;;;;;;5092272;28;20486;-74
2023/06/10 04:08:09;;;;;;;13.80;11.83;;;;;;;;;;5092305;28;20454;-75
2023/06/10 04:10:36;;;;;;;16.47;12.80;;;;;;;;;;5092262;28;20990;-75
2023/06/10 04:13:03;;;;;;;15.20;12.07;;;;;;;;;;5092293;28;20474;-74
2023/06/10 04:15:33;;;;;;;12.40;11.13;;;;;;;;;;5092324;28;20523;-75
2023/06/10 04:18:01;;;;;;;12.17;10.87;;;;;;;;;;5092308;28;20459;-75
2023/06/10 04:20:28;;;;;;;10.13;9.13;;;;;;;;;;5091991;28;20573;-75
2023/06/10 04:22:55;;;;;;;10.30;8.67;;;;;;;;;;5092132;28;20478;-75
2023/06/10 04:25:24;;;;;;;12.37;9.43;;;;;;;;;;5092297;28;20951;-74
2023/06/10 04:27:51;;;;;;;10.37;9.27;;;;;;;;;;5092192;28;20557;-75
2023/06/10 04:30:18;;;;;;;13.60;9.17;;;;;;;;;;5091838;28;20511;-74
2023/06/10 04:32:47;;;;;;;10.50;9.57;;;;;;;;;;5092058;28;20455;-74
2023/06/10 04:35:15;;;;;;;12.53;10.30;;;;;;;;;;5091971;28;21011;-74
2023/06/10 04:37:42;;;;;;;11.87;10.67;;;;;;;;;;5092232;28;20823;-74
2023/06/10 04:40:10;;;;;;;13.07;11.60;;;;;;;;;;5091299;28;21027;-75
2023/06/10 04:42:37;;;;;;;11.70;9.53;;;;;;;;;;5091910;28;20826;-74
2023/06/10 04:45:05;;;;;;;11.93;9.10;;;;;;;;;;5092292;28;20944;-74
2023/06/10 04:47:33;;;;;;;11.73;10.30;;;;;;;;;;5091607;28;20461;-75
2023/06/10 04:50:02;;;;;;;11.00;10.00;;;;;;;;;;5091818;28;20475;-74
2023/06/10 04:52:29;;;;;;;11.73;9.83;;;;;;;;;;5091868;28;21018;-74
2023/06/10 04:54:58;;;;;;;12.97;11.57;;;;;;;;;;5092780;28;20447;-74
2023/06/10 04:57:25;;;;;;;12.90;11.60;;;;;;;;;;5095681;28;20472;-74
2023/06/10 04:59:54;;;;;;;12.30;10.80;;;;;;;;;;5095790;28;20944;-74
2023/06/10 05:02:21;;;;;;;12.63;11.43;;;;;;;;;;5095711;28;20454;-74
2023/06/10 05:04:48;;;;;;;11.37;10.30;;;;;;;;;;5095748;28;20486;-75
2023/06/10 05:07:17;;;;;;;11.90;10.73;;;;;;;;;;5095651;28;20465;-74
2023/06/10 05:09:45;;;;;;;12.47;11.33;;;;;;;;;;5095552;28;20466;-75
2023/06/10 05:12:12;;;;;;;11.73;9.73;;;;;;;;;;5095595;28;20454;-75
2023/06/10 05:14:39;;;;;;;11.83;10.77;;;;;;;;;;5095795;28;20473;-75
2023/06/10 05:17:06;;;;;;;9.80;9.00;;;;;;;;;;5095405;28;20451;-75
2023/06/10 05:19:35;;;;;;;9.30;8.23;;;;;;;;;;5095395;28;21067;-75
2023/06/10 05:22:02;;;;;;;8.20;7.53;;;;;;;;;;5095211;28;20467;-75
2023/06/10 05:24:31;;;;;;;9.23;8.40;;;;;;;;;;5095403;28;20579;-75
2023/06/10 05:26:58;;;;;;;8.27;7.47;;;;;;;;;;5095349;28;20465;-75
2023/06/10 05:29:25;;;;;;;9.20;8.30;;;;;;;;;;5095409;28;20474;-75
2023/06/10 05:31:52;;;;;;;8.07;7.37;;;;;;;;;;5095460;28;20488;-74
2023/06/10 05:34:19;;;;;;;9.00;8.20;;;;;;;;;;5095197;28;21271;-74
2023/06/10 05:36:46;;;;;;;11.10;8.23;;;;;;;;;;5095487;28;20461;-74
2023/06/10 05:39:13;;;;;;;9.53;8.63;;;;;;;;;;5094963;28;20466;-74
2023/06/10 05:41:42;;;;;;;9.70;8.73;;;;;;;;;;5095287;28;20849;-74
2023/06/10 05:44:09;;;;;;;9.10;8.20;;;;;;;;;;5094920;28;20504;-74
2023/06/10 05:46:36;;;;;;;8.13;7.33;;;;;;;;;;5095277;28;20446;-75
2023/06/10 05:49:03;;;;;;;10.43;8.00;;;;;;;;;;5094805;28;20869;-74
2023/06/10 05:51:30;;;;;;;8.70;7.80;;;;;;;;;;5095126;28;20515;-75
2023/06/10 05:53:58;;;;;;;7.60;7.00;;;;;;;;;;5094855;28;20461;-75
2023/06/10 05:56:25;;;;;;;9.03;8.17;;;;;;;;;;5094635;28;20469;-75
2023/06/10 05:58:54;;;;;;;8.27;7.43;;;;;;;;;;5094580;28;20469;-75
2023/06/10 06:01:21;;;;;;;7.60;6.90;;;;;;;;;;5094842;28;20454;-75
2023/06/10 06:03:48;;;;;;;7.10;6.40;;;;;;;;;;5095701;28;20485;-77
2023/06/10 06:06:15;;;;;;;7.60;7.00;;;;;;;;;;5094317;28;20461;-78
2023/06/10 06:08:42;;;;;;;7.37;6.77;;;;;;;;;;5094566;28;20454;-77
2023/06/10 06:11:09;;;;;;;6.50;5.93;;;;;;;;;;5095118;28;20454;-77
2023/06/10 06:13:36;;;;;;;6.60;6.00;;;;;;;;;;5094997;28;20454;-77
2023/06/10 06:16:05;;;;;;;7.90;6.83;;;;;;;;;;5094508;28;20820;-77
2023/06/10 06:18:32;;;;;;;6.63;6.07;;;;;;;;;;5094527;28;20838;-77
2023/06/10 06:20:59;;;;;;;6.50;6.00;;;;;;;;;;5095296;28;20544;-77
2023/06/10 06:23:26;;;;;;;6.23;5.63;;;;;;;;;;5094673;28;20490;-77
2023/06/10 06:25:53;;;;;;;6.60;5.37;;;;;;;;;;5094815;28;20460;-78
2023/06/10 06:28:22;;;;;;;6.40;5.90;;;;;;;;;;5094294;28;20466;-77
2023/06/10 06:30:49;;;;;;;5.43;5.00;;;;;;;;;;5092240;28;20477;-78
2023/06/10 06:33:17;;;;;;;6.00;5.40;;;;;;;;;;5087127;28;20492;-77
2023/06/10 06:35:44;;;;;;;5.83;5.33;;;;;;;;;;5092808;28;20965;-77
2023/06/10 06:38:11;;;;;;;5.50;5.00;;;;;;;;;;5092561;28;20862;-77
2023/06/10 06:40:39;;;;;;;6.37;5.77;;;;;;;;;;5092908;28;20917;-77
2023/06/10 06:43:06;;;;;;;7.87;5.07;;;;;;;;;;5092367;28;20458;-77
2023/06/10 06:45:33;;;;;;;7.37;5.30;;;;;;;;;;5092538;28;20450;-77
2023/06/10 06:48:00;;;;;;;5.93;5.50;;;;;;;;;;5093033;28;20460;-77
2023/06/10 06:50:29;;;;;;;5.83;5.23;;;;;;;;;;5093127;28;20978;-77
2023/06/10 06:52:56;;;;;;;7.70;5.20;;;;;;;;;;5091396;28;20454;-77
2023/06/10 06:55:23;;;;;;;5.53;5.03;;;;;;;;;;5093105;28;20472;-77
2023/06/10 06:57:50;;;;;;;4.80;4.40;;;;;;;;;;5091858;28;20474;-78
2023/06/10 07:00:18;;;;;;;5.50;5.10;;;;;;;;;;5079248;28;20494;-77
2023/06/10 07:02:45;;;;;;;5.83;5.43;;;;;;;;;;5073863;28;20454;-78
2023/06/10 07:05:12;;;;;;;4.97;4.57;;;;;;;;;;5074448;28;20491;-78
2023/06/10 07:07:40;;;;;;;5.40;4.97;;;;;;;;;;5075661;28;20560;-78
2023/06/10 07:10:08;;;;;;;6.20;5.23;;;;;;;;;;5075888;28;20471;-78
2023/06/10 07:12:35;;;;;;;4.20;3.77;;;;;;;;;;5076250;28;20853;-78
2023/06/10 07:15:02;;;;;;;5.97;5.47;;;;;;;;;;5075960;28;20815;-78
2023/06/10 07:17:29;;;;;;;4.80;4.40;;;;;;;;;;5075902;28;20808;-78
2023/06/10 07:19:57;;;;;;;5.23;4.73;;;;;;;;;;5076351;28;20274;-78
2023/06/10 07:22:24;;;;;;;5.30;4.90;;;;;;;;;;5076327;28;20470;-78
2023/06/10 07:24:54;;;;;;;5.33;4.93;;;;;;;;;;5075910;28;20589;-78
2023/06/10 07:27:21;;;;;;;5.20;4.70;;;;;;;;;;5075762;28;20471;-78
2023/06/10 07:29:48;;;;;;;4.83;4.30;;;;;;;;;;5076146;28;20894;-78
2023/06/10 07:32:15;;;;;;;4.30;3.90;;;;;;;;;;5075714;28;20444;-79
2023/06/10 07:34:43;;;;;;;4.67;4.37;;;;;;;;;;5075612;28;20451;-78
2023/06/10 07:37:10;;;;;;;4.17;3.87;;;;;;;;;;5075633;28;20453;-78
2023/06/10 07:39:37;;;;;;;5.27;4.87;;;;;;;;;;5075081;28;20982;-78
2023/06/10 07:42:06;;;;;;;5.70;5.20;;;;;;;;;;5075432;28;20457;-79
2023/06/10 07:44:33;;;;;;;4.90;4.50;;;;;;;;;;5075192;28;20494;-79
2023/06/10 07:47:00;;;;;;;5.07;4.67;;;;;;;;;;5075845;28;20948;-78
2023/06/10 07:49:27;;;;;;;5.50;5.10;;;;;;;;;;5074664;28;20475;-78
2023/06/10 07:51:55;;;;;;;5.33;4.93;;;;;;;;;;5075483;28;20458;-78
2023/06/10 07:54:22;;;;;;;5.30;4.87;;;;;;;;;;5075102;28;20481;-78
2023/06/10 07:56:52;;;;;;;5.43;5.03;;;;;;;;;;5073937;28;20463;-78
2023/06/10 07:59:20;;;;;;;5.00;4.60;;;;;;;;;;5074275;28;20575;-79
2023/06/10 08:01:47;;;;;;;5.03;4.57;;;;;;;;;;5075187;28;20460;-79
2023/06/10 08:04:14;;;;;;;4.80;4.40;;;;;;;;;;5075462;28;20483;-79
2023/06/10 08:06:41;;;;;;;4.30;4.00;;;;;;;;;;5075227;28;20456;-79
2023/06/10 08:09:08;;;;;;;5.83;5.37;;;;;;;;;;5075201;28;20468;-78
2023/06/10 08:11:36;;;;;;;4.40;4.10;;;;;;;;;;5075369;28;20459;-78
2023/06/10 08:14:03;;;;;;;5.67;5.20;;;;;;;;;;5075527;28;20457;-79
2023/06/10 08:16:31;;;;;;;6.90;4.70;;;;;;;;;;5074998;28;20463;-79
2023/06/10 08:18:58;;;;;;;5.83;5.30;;;;;;;;;;5074599;28;20458;-79
2023/06/10 08:21:26;;;;;;;9.50;4.53;;;;;;;;;;5075330;28;20443;-79
2023/06/10 08:23:54;;;;;;;3.97;3.67;;;;;;;;;;5075498;28;20526;-79
2023/06/10 08:26:21;;;;;;;6.40;5.80;;;;;;;;;;5075142;28;20490;-79
2023/06/10 08:28:48;;;;;;;6.40;5.90;;;;;;;;;;5074642;28;20483;-79
2023/06/10 08:31:16;;;;;;;14.93;6.10;;;;;;;;;;5074666;28;20874;-79
2023/06/10 08:33:44;;;;;;;5.93;5.43;;;;;;;;;;5075855;28;20448;-78
2023/06/10 08:36:11;;;;;;;8.80;6.50;;;;;;;;;;5075718;28;20451;-78
2023/06/10 08:38:39;;;;;;;7.53;6.83;;;;;;;;;;5075212;28;20464;-78
2023/06/10 08:41:07;;;;;;;8.40;7.70;;;;;;;;;;5074520;28;20460;-78
2023/06/10 08:43:38;;;;;;;7.17;6.47;;;;;;;;;;5074643;28;20492;-79
2023/06/10 08:46:05;;;;;;;11.00;6.77;;;;;;;;;;5074820;28;20499;-79
2023/06/10 08:48:32;;;;;;;7.13;6.50;;;;;;;;;;5074183;28;20468;-78
2023/06/10 08:51:01;;;;;;;7.70;6.90;;;;;;;;;;5074581;28;20467;-79
2023/06/10 08:53:28;;;;;;;7.23;6.10;;;;;;;;;;5074883;28;20447;-79
2023/06/10 08:55:59;;;;;;;6.90;6.17;;;;;;;;;;5074952;28;20472;-79
2023/06/10 08:58:26;;;;;;;10.57;8.40;;;;;;;;;;5074246;28;20462;-78
2023/06/10 09:00:53;;;;;;;8.17;7.33;;;;;;;;;;5075019;28;20876;-79
2023/06/10 09:03:21;;;;;;;8.43;7.73;;;;;;;;;;5075464;28;20460;-79
2023/06/10 09:05:48;;;;;;;8.50;7.33;;;;;;;;;;5075271;28;20487;-79
2023/06/10 09:08:17;;;;;;;7.47;6.80;;;;;;;;;;5075124;28;20448;-79
2023/06/10 09:10:44;;;;;;;6.90;6.20;;;;;;;;;;5075188;28;20468;-79
2023/06/10 09:13:11;;;;;;;7.50;6.80;;;;;;;;;;5074513;28;20794;-79
2023/06/10 09:15:40;;;;;;;7.80;7.10;;;;;;;;;;5075420;28;20440;-79
2023/06/10 09:18:07;;;;;;;7.13;6.43;;;;;;;;;;5074840;28;20485;-78
2023/06/10 09:20:34;;;;;;;8.37;7.57;;;;;;;;;;5075033;28;20487;-79
2023/06/10 09:23:01;;;;;;;8.60;7.70;;;;;;;;;;5074556;28;20452;-79
2023/06/10 09:25:37;;;;;;;7.63;6.93;;;;;;;;;;5074412;28;20510;-79
2023/06/10 09:28:05;;;;;;;8.07;7.37;;;;;;;;;;5072988;28;20978;-78
2023/06/10 09:30:33;;;;;;;7.47;6.87;;;;;;;;;;5073613;28;20998;-79
2023/06/10 09:33:02;;;;;;;7.10;6.10;;;;;;;;;;5074886;28;20459;-79
2023/06/10 09:35:31;;;;;;;7.20;6.23;;;;;;;;;;5083213;28;20447;-78
2023/06/10 09:37:59;;;;;;;8.33;7.50;;;;;;;;;;5094276;28;20456;-79
2023/06/10 09:40:27;;;;;;;7.23;6.60;;;;;;;;;;5094230;28;20467;-78
2023/06/10 09:42:56;;;;;;;7.40;6.80;;;;;;;;;;5095859;28;20490;-78
2023/06/10 09:45:24;;;;;;;7.17;6.47;;;;;;;;;;5095415;28;20838;-77
2023/06/10 09:47:53;;;;;;;6.73;6.13;;;;;;;;;;5097112;28;20521;-80
2023/06/10 09:50:20;;;;;;;7.20;6.60;;;;;;;;;;5097148;28;20524;-78
2023/06/10 09:52:48;;;;;;;6.93;6.23;;;;;;;;;;5080470;28;20587;-78
2023/06/10 09:55:16;;;;;;;8.00;7.30;;;;;;;;;;5075955;28;20886;-78
2023/06/10 09:57:47;;;;;;;7.90;7.20;;;;;;;;;;5076662;28;20474;-78
2023/06/10 10:00:16;;;;;;;7.57;6.90;;;;;;;;;;5075944;28;20514;-78
2023/06/10 10:02:48;;;;;;;7.67;6.97;;;;;;;;;;5076038;28;20824;-78
2023/06/10 10:05:15;;;;;;;7.30;6.70;;;;;;;;;;5075593;28;20549;-78
2023/06/10 10:07:43;;;;;;;8.23;7.50;;;;;;;;;;5077099;28;20436;-78
2023/06/10 10:10:10;;;;;;;7.03;6.43;;;;;;;;;;5075520;28;20483;-78
2023/06/10 10:12:38;;;;;;;10.27;6.40;;;;;;;;;;5075436;28;20459;-78
2023/06/10 10:15:08;;;;;;;6.83;6.23;;;;;;;;;;5075360;28;20456;-78
2023/06/10 10:17:39;;;;;;;6.60;6.00;;;;;;;;;;5075543;28;20439;-78
2023/06/10 10:20:07;;;;;;;5.77;5.27;;;;;;;;;;5075549;28;20475;-78
2023/06/10 10:22:41;;;;;;;5.60;5.10;;;;;;;;;;5075744;28;20451;-78
2023/06/10 10:25:11;;;;;;;7.37;6.77;;;;;;;;;;5075108;28;20486;-78
2023/06/10 10:27:42;;;;;;;6.70;6.03;;;;;;;;;;5075382;28;20448;-78
2023/06/10 10:30:11;;;;;;;7.13;6.43;;;;;;;;;;5075291;28;20486;-77
2023/06/10 10:32:42;;;;;;;7.10;6.50;;;;;;;;;;5075039;28;20460;-78
2023/06/10 10:35:10;;;;;;;6.87;6.13;;;;;;;;;;5075367;28;20466;-78
2023/06/10 10:37:37;;;;;;;9.10;6.73;;;;;;;;;;5075306;28;20971;-78
2023/06/10 10:40:05;;;;;;;7.33;6.63;;;;;;;;;;5074627;28;20468;-78
2023/06/10 10:42:35;;;;;;;6.00;5.40;;;;;;;;;;5075305;28;20971;-78
2023/06/10 10:45:02;;;;;;;6.57;5.97;;;;;;;;;;5075998;28;20866;-77
2023/06/10 10:47:31;;;;;;;7.20;6.50;;;;;;;;;;5077593;28;20440;-77
2023/06/10 10:50:01;;;;;;;7.47;6.87;;;;;;;;;;5076936;28;20468;-77
2023/06/10 10:52:47;;;;;;;9.23;7.20;;;;;;;;;;5075061;28;20463;-77
2023/06/10 10:55:14;;;;;;;8.17;7.43;;;;;;;;;;5073834;28;20455;-77
2023/06/10 10:57:42;;;;;;;8.27;7.40;;;;;;;;;;5073840;28;20514;-77
2023/06/10 11:00:11;;;;;;;7.60;6.60;;;;;;;;;;5073296;28;21002;-77
2023/06/10 11:02:42;;;;;;;7.70;6.97;;;;;;;;;;5073553;28;20456;-77
2023/06/10 11:05:12;;;;;;;6.93;6.23;;;;;;;;;;5073929;28;20498;-77
2023/06/10 11:07:40;;;;;;;6.90;6.30;;;;;;;;;;5073849;28;20471;-77
2023/06/10 11:10:09;;;;;;;11.17;7.23;;;;;;;;;;5073356;28;20479;-77
2023/06/10 11:12:42;;;;;;;7.03;6.33;;;;;;;;;;5073799;28;20466;-78
2023/06/10 11:15:10;;;;;;;7.87;7.17;;;;;;;;;;5073403;28;20828;-77
2023/06/10 11:17:37;;;;;;;7.47;6.70;;;;;;;;;;5073420;28;20463;-77
2023/06/10 11:20:05;;;;;;;8.00;7.23;;;;;;;;;;5072963;28;20475;-77
2023/06/10 11:22:33;;;;;;;7.43;6.83;;;;;;;;;;5073160;28;20937;-76
2023/06/10 11:25:00;;;;;;;7.30;6.60;;;;;;;;;;5073079;28;20487;-78
2023/06/10 11:27:40;;;;;;;6.57;6.00;;;;;;;;;;5073317;28;20448;-77
2023/06/10 11:30:20;;;;;;;7.23;6.60;;;;;;;;;;5072766;28;20479;-77
2023/06/10 11:32:52;;;;;;;7.53;6.83;;;;;;;;;;5073058;28;21078;-76
2023/06/10 11:35:20;;;;;;;6.83;6.23;;;;;;;;;;5073073;28;20460;-77
2023/06/10 11:37:49;;;;;;;7.50;6.80;;;;;;;;;;5073090;28;20448;-77
2023/06/10 11:40:16;;;;;;;6.30;5.80;;;;;;;;;;5072529;28;20471;-76
2023/06/10 11:42:44;;;;;;;7.27;6.67;;;;;;;;;;5072745;28;20466;-77
2023/06/10 11:45:11;;;;;;;6.53;5.93;;;;;;;;;;5072689;28;20487;-77
2023/06/10 11:47:38;;;;;;;12.40;7.03;;;;;;;;;;5072403;28;20448;-77
2023/06/10 11:50:05;;;;;;;8.30;6.23;;;;;;;;;;5072634;28;20555;-77
2023/06/10 11:52:37;;;;;;;7.30;6.40;;;;;;;;;;5072715;28;20446;-78
2023/06/10 11:55:07;;;;;;;7.90;5.90;;;;;;;;;;5073846;28;20509;-78
2023/06/10 11:57:35;;;;;;;11.87;6.60;;;;;;;;;;5074290;28;20456;-79
2023/06/10 12:00:05;;;;;;;6.00;5.50;;;;;;;;;;5072833;28;20885;-76
2023/06/10 12:02:32;;;;;;;7.20;6.50;;;;;;;;;;5073040;28;20822;-79
2023/06/10 12:05:11;;;;;;;6.97;6.37;;;;;;;;;;5071638;28;20455;-76
2023/06/10 12:07:38;;;;;;;7.00;6.40;;;;;;;;;;5073011;28;20459;-76
2023/06/10 12:10:07;;;;;;;7.13;6.43;;;;;;;;;;5079086;28;20553;-77
2023/06/10 12:12:36;;;;;;;6.43;5.93;;;;;;;;;;5092998;28;20898;-79
2023/06/10 12:15:05;;;;;;;7.60;6.90;;;;;;;;;;5094647;28;20446;-77
2023/06/10 12:17:39;;;;;;;8.23;5.97;;;;;;;;;;5092549;28;20562;-77
2023/06/10 12:20:07;;;;;;;5.53;4.60;;;;;;;;;;5092579;28;20467;-77
2023/06/10 12:22:38;;;;;;;5.67;5.13;;;;;;;;;;5092556;28;20586;-76
2023/06/10 12:25:07;;;;;;;5.87;5.37;;;;;;;;;;5092361;28;20435;-77
2023/06/10 12:27:35;;;;;;;6.60;6.00;;;;;;;;;;5092628;28;20470;-77
2023/06/10 12:30:04;;;;;;;6.07;5.50;;;;;;;;;;5092425;28;20467;-77
2023/06/10 12:32:38;;;;;;;6.97;6.27;;;;;;;;;;5092842;28;20442;-77
2023/06/10 12:35:06;;;;;;;6.83;5.47;;;;;;;;;;5092216;28;20451;-77
2023/06/10 12:37:34;;;;;;;7.20;6.50;;;;;;;;;;5092427;28;20523;-77
2023/06/10 12:40:02;;;;;;;7.50;6.50;;;;;;;;;;5092192;28;20847;-77
2023/06/10 12:42:31;;;;;;;6.53;5.97;;;;;;;;;;5092108;28;20455;-78
2023/06/10 12:45:00;;;;;;;6.63;6.03;;;;;;;;;;5092144;28;20849;-77
2023/06/10 12:47:32;;;;;;;7.47;6.67;;;;;;;;;;5092201;28;20503;-78
2023/06/10 12:49:59;;;;;;;6.97;6.37;;;;;;;;;;5092104;28;20471;-77
2023/06/10 12:52:26;;;;;;;6.37;5.83;;;;;;;;;;5092414;28;20458;-77
2023/06/10 12:54:54;;;;;;;6.67;6.07;;;;;;;;;;5092160;28;20455;-77
2023/06/10 12:57:21;;;;;;;5.10;4.70;;;;;;;;;;5091988;28;20474;-77
2023/06/10 12:59:52;;;;;;;6.33;5.83;;;;;;;;;;5091883;28;20482;-77
2023/06/10 13:02:23;;;;;;;7.10;6.50;;;;;;;;;;5092087;28;20462;-78
2023/06/10 13:04:51;;;;;;;6.80;6.20;;;;;;;;;;5097567;28;20458;-77
2023/06/10 13:07:18;;;;;;;6.13;5.60;;;;;;;;;;5091929;28;20482;-77
2023/06/10 13:09:48;;;;;;;5.93;5.43;;;;;;;;;;5091653;28;20482;-77
2023/06/10 13:12:17;;;;;;;6.60;6.00;;;;;;;;;;5091894;28;20898;-77
2023/06/10 13:14:44;;;;;;;7.27;6.67;;;;;;;;;;5092189;28;20817;-77
2023/06/10 13:17:13;;;;;;;6.30;5.70;;;;;;;;;;5094725;28;20493;-77
2023/06/10 13:19:40;;;;;;;6.93;6.23;;;;;;;;;;5095677;28;20466;-76
2023/06/10 13:22:10;;;;;;;11.53;8.20;;;;;;;;;;5097339;28;20451;-76
2023/06/10 13:24:40;;;;;;;8.20;6.77;;;;;;;;;;5096165;28;20446;-79
2023/06/10 13:27:07;;;;;;;8.70;7.90;;;;;;;;;;5097968;28;20487;-78
2023/06/10 13:29:35;;;;;;;7.47;6.77;;;;;;;;;;5100257;28;20466;-79
2023/06/10 13:32:02;;;;;;;7.97;6.63;;;;;;;;;;5099386;28;20480;-79
2023/06/10 13:34:31;;;;;;;7.77;6.97;;;;;;;;;;5098435;28;20458;-79
2023/06/10 13:36:58;;;;;;;12.00;6.83;;;;;;;;;;5099047;28;20454;-78
2023/06/10 13:39:25;;;;;;;6.20;5.40;;;;;;;;;;5098566;28;20536;-78
2023/06/10 13:41:52;;;;;;;6.90;5.23;;;;;;;;;;5097971;28;20438;-78
2023/06/10 13:44:20;;;;;;;5.67;5.13;;;;;;;;;;5096828;28;20462;-78
2023/06/10 13:46:47;;;;;;;6.93;6.23;;;;;;;;;;5096136;28;20526;-78
2023/06/10 13:49:14;;;;;;;6.90;4.93;;;;;;;;;;5096656;28;20470;-79
2023/06/10 13:51:42;;;;;;;6.37;5.50;;;;;;;;;;5096337;28;20462;-78
2023/06/10 13:54:09;;;;;;;7.37;5.83;;;;;;;;;;5096524;28;20454;-78
2023/06/10 13:56:38;;;;;;;4.80;4.40;;;;;;;;;;5096517;28;20955;-78
2023/06/10 13:59:05;;;;;;;5.03;4.53;;;;;;;;;;5095657;28;20562;-78
2023/06/10 14:01:32;;;;;;;4.90;4.33;;;;;;;;;;5098039;28;20451;-78
2023/06/10 14:04:00;;;;;;;6.60;4.83;;;;;;;;;;5096730;28;20455;-78
2023/06/10 14:06:27;;;;;;;7.27;5.13;;;;;;;;;;5097647;28;20639;-79
2023/06/10 14:08:55;;;;;;;7.03;6.33;;;;;;;;;;5097764;28;20458;-78
2023/06/10 14:11:23;;;;;;;5.73;4.93;;;;;;;;;;5097551;28;20449;-78
2023/06/10 14:13:50;;;;;;;4.70;4.30;;;;;;;;;;5097397;28;20478;-78
2023/06/10 14:16:17;;;;;;;4.70;4.20;;;;;;;;;;5096566;28;20454;-78
2023/06/10 14:18:44;;;;;;;5.20;4.70;;;;;;;;;;5097455;28;20808;-78
2023/06/10 14:21:11;;;;;;;4.53;4.13;;;;;;;;;;5090362;28;20466;-79
2023/06/10 14:23:39;;;;;;;4.30;3.90;;;;;;;;;;5093988;28;20985;-78
2023/06/10 14:26:07;;;;;;;3.67;3.37;;;;;;;;;;5093557;28;20840;-78
2023/06/10 14:28:34;;;;;;;4.67;4.27;;;;;;;;;;5092769;28;20454;-78
2023/06/10 14:31:02;;;;;;;4.63;4.23;;;;;;;;;;5094285;28;20477;-78
2023/06/10 14:33:30;;;;;;;4.67;4.27;;;;;;;;;;5094037;28;21117;-78
2023/06/10 14:35:58;;;;;;;5.70;5.20;;;;;;;;;;5093957;28;20451;-78
2023/06/10 14:38:25;;;;;;;4.93;4.53;;;;;;;;;;5093838;28;20819;-78